sensor_id;sensor_type;location;lat;lon;timestamp;temperature;humidity
9393;DHT22;4736;52.508;13.422;2024-01-07T00:02:01;-1.00;66.50
9393;DHT22;4736;52.508;13.422;2024-01-07T00:05:05;-1.00;65.90
9393;DHT22;4736;52.508;13.422;2024-01-07T00:08:09;-1.00;65.90
9393;DHT22;4736;52.508;13.422;2024-01-07T00:11:12;-1.10;65.90
9393;DHT22;4736;52.508;13.422;2024-01-07T00:14:16;-1.10;66.40
9393;DHT22;4736;52.508;13.422;2024-01-07T00:17:20;-1.10;66.60
9393;DHT22;4736;52.508;13.422;2024-01-07T00:20:23;-1.10;66.50
9393;DHT22;4736;52.508;13.422;2024-01-07T00:23:26;-1.10;66.20
9393;DHT22;4736;52.508;13.422;2024-01-07T00:26:29;-1.10;66.50
9393;DHT22;4736;52.508;13.422;2024-01-07T00:29:34;-1.10;66.60
9393;DHT22;4736;52.508;13.422;2024-01-07T00:32:37;-1.10;66.60
9393;DHT22;4736;52.508;13.422;2024-01-07T00:35:40;-1.30;66.90
9393;DHT22;4736;52.508;13.422;2024-01-07T00:38:43;-1.30;67.00
9393;DHT22;4736;52.508;13.422;2024-01-07T00:41:46;-1.30;66.60
9393;DHT22;4736;52.508;13.422;2024-01-07T00:44:51;-1.30;66.40
9393;DHT22;4736;52.508;13.422;2024-01-07T00:47:54;-1.30;66.30
9393;DHT22;4736;52.508;13.422;2024-01-07T00:50:57;-1.30;66.10
9393;DHT22;4736;52.508;13.422;2024-01-07T00:54:01;-1.30;65.60
9393;DHT22;4736;52.508;13.422;2024-01-07T00:57:05;-1.40;65.10
9393;DHT22;4736;52.508;13.422;2024-01-07T01:00:11;-1.40;65.40
9393;DHT22;4736;52.508;13.422;2024-01-07T01:03:14;-1.30;65.40
9393;DHT22;4736;52.508;13.422;2024-01-07T01:06:17;-1.40;65.60
9393;DHT22;4736;52.508;13.422;2024-01-07T01:09:20;-1.50;65.30
9393;DHT22;4736;52.508;13.422;2024-01-07T01:12:23;-1.50;64.90
9393;DHT22;4736;52.508;13.422;2024-01-07T01:15:28;-1.50;64.50
9393;DHT22;4736;52.508;13.422;2024-01-07T01:18:31;-1.50;64.20
9393;DHT22;4736;52.508;13.422;2024-01-07T01:21:34;-1.50;64.00
9393;DHT22;4736;52.508;13.422;2024-01-07T01:24:38;-1.50;64.30
9393;DHT22;4736;52.508;13.422;2024-01-07T01:27:41;-1.50;64.00
9393;DHT22;4736;52.508;13.422;2024-01-07T01:30:45;-1.60;64.00
9393;DHT22;4736;52.508;13.422;2024-01-07T01:33:49;-1.50;64.30
9393;DHT22;4736;52.508;13.422;2024-01-07T01:36:52;-1.60;64.00
9393;DHT22;4736;52.508;13.422;2024-01-07T01:39:55;-1.70;63.90
9393;DHT22;4736;52.508;13.422;2024-01-07T01:42:59;-1.60;63.90
9393;DHT22;4736;52.508;13.422;2024-01-07T01:46:03;-1.60;63.40
9393;DHT22;4736;52.508;13.422;2024-01-07T01:49:07;-1.70;63.70
9393;DHT22;4736;52.508;13.422;2024-01-07T01:52:13;-1.70;63.90
9393;DHT22;4736;52.508;13.422;2024-01-07T01:55:17;-1.70;64.10
9393;DHT22;4736;52.508;13.422;2024-01-07T01:58:22;-1.70;63.70
9393;DHT22;4736;52.508;13.422;2024-01-07T02:01:27;-1.80;63.90
9393;DHT22;4736;52.508;13.422;2024-01-07T02:04:31;-1.70;63.60
9393;DHT22;4736;52.508;13.422;2024-01-07T02:07:35;-1.80;63.80
9393;DHT22;4736;52.508;13.422;2024-01-07T02:10:38;-1.90;63.60
9393;DHT22;4736;52.508;13.422;2024-01-07T02:13:43;-1.90;63.60
9393;DHT22;4736;52.508;13.422;2024-01-07T02:16:48;-2.00;63.40
9393;DHT22;4736;52.508;13.422;2024-01-07T02:19:51;-2.10;63.50
9393;DHT22;4736;52.508;13.422;2024-01-07T02:22:54;-2.10;63.60
9393;DHT22;4736;52.508;13.422;2024-01-07T02:26:00;-2.10;63.70
9393;DHT22;4736;52.508;13.422;2024-01-07T02:29:04;-2.10;64.00
9393;DHT22;4736;52.508;13.422;2024-01-07T02:32:07;-2.10;63.60
9393;DHT22;4736;52.508;13.422;2024-01-07T02:35:11;-2.10;63.30
9393;DHT22;4736;52.508;13.422;2024-01-07T02:38:15;-2.20;63.40
9393;DHT22;4736;52.508;13.422;2024-01-07T02:41:19;-2.30;63.50
9393;DHT22;4736;52.508;13.422;2024-01-07T02:44:27;-2.30;63.90
9393;DHT22;4736;52.508;13.422;2024-01-07T02:47:30;-2.40;64.20
9393;DHT22;4736;52.508;13.422;2024-01-07T02:50:33;-2.40;64.10
9393;DHT22;4736;52.508;13.422;2024-01-07T02:53:36;-2.50;64.30
9393;DHT22;4736;52.508;13.422;2024-01-07T02:56:41;-2.60;64.50
9393;DHT22;4736;52.508;13.422;2024-01-07T02:59:44;-2.60;64.00
9393;DHT22;4736;52.508;13.422;2024-01-07T03:02:47;-2.60;64.20
9393;DHT22;4736;52.508;13.422;2024-01-07T03:05:50;-2.60;64.10
9393;DHT22;4736;52.508;13.422;2024-01-07T03:08:53;-2.70;64.50
9393;DHT22;4736;52.508;13.422;2024-01-07T03:11:59;-2.80;64.70
9393;DHT22;4736;52.508;13.422;2024-01-07T03:15:03;-2.80;64.70
9393;DHT22;4736;52.508;13.422;2024-01-07T03:18:08;-2.80;64.60
9393;DHT22;4736;52.508;13.422;2024-01-07T03:21:16;-2.80;64.20
9393;DHT22;4736;52.508;13.422;2024-01-07T03:24:20;-2.80;64.60
9393;DHT22;4736;52.508;13.422;2024-01-07T03:27:24;-2.80;64.80
9393;DHT22;4736;52.508;13.422;2024-01-07T03:30:27;-2.90;64.80
9393;DHT22;4736;52.508;13.422;2024-01-07T03:33:31;-2.90;64.50
9393;DHT22;4736;52.508;13.422;2024-01-07T03:36:34;-2.90;64.50
9393;DHT22;4736;52.508;13.422;2024-01-07T03:39:37;-2.90;64.30
9393;DHT22;4736;52.508;13.422;2024-01-07T03:42:42;-3.00;64.60
9393;DHT22;4736;52.508;13.422;2024-01-07T03:45:45;-3.00;64.50
9393;DHT22;4736;52.508;13.422;2024-01-07T03:48:48;-3.00;64.70
9393;DHT22;4736;52.508;13.422;2024-01-07T03:51:51;-3.00;64.60
9393;DHT22;4736;52.508;13.422;2024-01-07T03:54:55;-3.00;64.50
9393;DHT22;4736;52.508;13.422;2024-01-07T03:57:59;-3.00;64.80
9393;DHT22;4736;52.508;13.422;2024-01-07T04:01:03;-3.10;64.60
9393;DHT22;4736;52.508;13.422;2024-01-07T04:04:06;-3.10;64.80
9393;DHT22;4736;52.508;13.422;2024-01-07T04:07:10;-3.20;64.80
9393;DHT22;4736;52.508;13.422;2024-01-07T04:10:13;-3.10;64.10
9393;DHT22;4736;52.508;13.422;2024-01-07T04:13:17;-3.10;64.20
9393;DHT22;4736;52.508;13.422;2024-01-07T04:16:21;-3.10;63.90
9393;DHT22;4736;52.508;13.422;2024-01-07T04:19:24;-3.10;64.00
9393;DHT22;4736;52.508;13.422;2024-01-07T04:22:27;-3.10;64.20
9393;DHT22;4736;52.508;13.422;2024-01-07T04:25:30;-3.20;64.00
9393;DHT22;4736;52.508;13.422;2024-01-07T04:28:35;-3.20;63.80
9393;DHT22;4736;52.508;13.422;2024-01-07T04:31:38;-3.20;64.10
9393;DHT22;4736;52.508;13.422;2024-01-07T04:34:41;-3.20;64.30
9393;DHT22;4736;52.508;13.422;2024-01-07T04:37:45;-3.20;64.70
9393;DHT22;4736;52.508;13.422;2024-01-07T04:40:51;-3.20;64.20
9393;DHT22;4736;52.508;13.422;2024-01-07T04:43:55;-3.20;63.90
9393;DHT22;4736;52.508;13.422;2024-01-07T04:46:58;-3.10;64.00
9393;DHT22;4736;52.508;13.422;2024-01-07T04:50:02;-3.20;64.20
9393;DHT22;4736;52.508;13.422;2024-01-07T04:53:06;-3.20;63.90
9393;DHT22;4736;52.508;13.422;2024-01-07T04:56:09;-3.20;64.00
9393;DHT22;4736;52.508;13.422;2024-01-07T04:59:14;-3.20;64.30
9393;DHT22;4736;52.508;13.422;2024-01-07T05:02:17;-3.20;64.00
9393;DHT22;4736;52.508;13.422;2024-01-07T05:05:20;-3.20;64.30
9393;DHT22;4736;52.508;13.422;2024-01-07T05:08:23;-3.20;64.00
9393;DHT22;4736;52.508;13.422;2024-01-07T05:11:27;-3.20;63.80
9393;DHT22;4736;52.508;13.422;2024-01-07T05:14:32;-3.20;64.10
9393;DHT22;4736;52.508;13.422;2024-01-07T05:17:35;-3.30;64.30
9393;DHT22;4736;52.508;13.422;2024-01-07T05:20:38;-3.30;64.40
9393;DHT22;4736;52.508;13.422;2024-01-07T05:23:42;-3.30;64.50
9393;DHT22;4736;52.508;13.422;2024-01-07T05:26:45;-3.30;64.20
9393;DHT22;4736;52.508;13.422;2024-01-07T05:29:50;-3.20;64.50
9393;DHT22;4736;52.508;13.422;2024-01-07T05:32:53;-3.30;64.40
9393;DHT22;4736;52.508;13.422;2024-01-07T05:35:56;-3.30;64.40
9393;DHT22;4736;52.508;13.422;2024-01-07T05:38:59;-3.20;64.40
9393;DHT22;4736;52.508;13.422;2024-01-07T05:42:03;-3.20;64.70
9393;DHT22;4736;52.508;13.422;2024-01-07T05:45:09;-3.20;64.70
9393;DHT22;4736;52.508;13.422;2024-01-07T05:48:13;-3.20;64.60
9393;DHT22;4736;52.508;13.422;2024-01-07T05:51:16;-3.20;64.50
9393;DHT22;4736;52.508;13.422;2024-01-07T05:54:20;-3.20;64.50
9393;DHT22;4736;52.508;13.422;2024-01-07T05:57:24;-3.20;64.80
9393;DHT22;4736;52.508;13.422;2024-01-07T06:00:28;-3.20;64.60
9393;DHT22;4736;52.508;13.422;2024-01-07T06:03:37;-3.10;65.00
9393;DHT22;4736;52.508;13.422;2024-01-07T06:06:40;-3.10;65.10
9393;DHT22;4736;52.508;13.422;2024-01-07T06:09:44;-3.00;65.00
9393;DHT22;4736;52.508;13.422;2024-01-07T06:12:47;-3.00;64.80
9393;DHT22;4736;52.508;13.422;2024-01-07T06:15:52;-3.00;64.90
9393;DHT22;4736;52.508;13.422;2024-01-07T06:18:55;-2.90;65.00
9393;DHT22;4736;52.508;13.422;2024-01-07T06:21:59;-3.00;65.10
9393;DHT22;4736;52.508;13.422;2024-01-07T06:25:02;-2.90;65.00
9393;DHT22;4736;52.508;13.422;2024-01-07T06:28:09;-2.90;65.00
9393;DHT22;4736;52.508;13.422;2024-01-07T06:31:14;-2.90;65.10
9393;DHT22;4736;52.508;13.422;2024-01-07T06:34:17;-2.80;64.90
9393;DHT22;4736;52.508;13.422;2024-01-07T06:37:21;-2.80;65.20
9393;DHT22;4736;52.508;13.422;2024-01-07T06:40:24;-2.80;65.00
9393;DHT22;4736;52.508;13.422;2024-01-07T06:43:27;-2.80;65.10
9393;DHT22;4736;52.508;13.422;2024-01-07T06:46:32;-2.80;65.20
9393;DHT22;4736;52.508;13.422;2024-01-07T06:49:36;-2.80;65.20
9393;DHT22;4736;52.508;13.422;2024-01-07T06:52:40;-2.70;64.90
9393;DHT22;4736;52.508;13.422;2024-01-07T06:55:43;-2.70;65.00
9393;DHT22;4736;52.508;13.422;2024-01-07T06:58:48;-2.70;65.30
9393;DHT22;4736;52.508;13.422;2024-01-07T07:01:53;-2.70;65.40
9393;DHT22;4736;52.508;13.422;2024-01-07T07:04:59;-2.70;65.30
9393;DHT22;4736;52.508;13.422;2024-01-07T07:08:02;-2.60;65.40
9393;DHT22;4736;52.508;13.422;2024-01-07T07:11:05;-2.60;65.20
9393;DHT22;4736;52.508;13.422;2024-01-07T07:14:09;-2.60;65.10
9393;DHT22;4736;52.508;13.422;2024-01-07T07:17:13;-2.60;65.10
9393;DHT22;4736;52.508;13.422;2024-01-07T07:20:16;-2.60;64.40
9393;DHT22;4736;52.508;13.422;2024-01-07T07:23:20;-2.60;64.30
9393;DHT22;4736;52.508;13.422;2024-01-07T07:26:23;-2.60;64.60
9393;DHT22;4736;52.508;13.422;2024-01-07T07:29:26;-2.50;64.40
9393;DHT22;4736;52.508;13.422;2024-01-07T07:32:30;-2.50;64.30
9393;DHT22;4736;52.508;13.422;2024-01-07T07:35:34;-2.40;64.00
9393;DHT22;4736;52.508;13.422;2024-01-07T07:38:37;-2.50;63.90
9393;DHT22;4736;52.508;13.422;2024-01-07T07:41:40;-2.40;64.00
9393;DHT22;4736;52.508;13.422;2024-01-07T07:44:43;-2.40;63.70
9393;DHT22;4736;52.508;13.422;2024-01-07T07:47:48;-2.40;63.80
9393;DHT22;4736;52.508;13.422;2024-01-07T07:50:51;-2.40;63.90
9393;DHT22;4736;52.508;13.422;2024-01-07T07:53:54;-2.30;64.20
9393;DHT22;4736;52.508;13.422;2024-01-07T07:56:57;-2.30;64.30
9393;DHT22;4736;52.508;13.422;2024-01-07T08:00:00;-2.30;64.00
9393;DHT22;4736;52.508;13.422;2024-01-07T08:03:07;-2.30;64.00
9393;DHT22;4736;52.508;13.422;2024-01-07T08:06:10;-2.20;63.90
9393;DHT22;4736;52.508;13.422;2024-01-07T08:09:13;-2.20;64.00
9393;DHT22;4736;52.508;13.422;2024-01-07T08:12:16;-2.20;63.90
9393;DHT22;4736;52.508;13.422;2024-01-07T08:15:20;-2.20;64.10
9393;DHT22;4736;52.508;13.422;2024-01-07T08:18:24;-2.20;63.80
9393;DHT22;4736;52.508;13.422;2024-01-07T08:21:28;-2.20;64.00
9393;DHT22;4736;52.508;13.422;2024-01-07T08:24:31;-2.10;64.20
9393;DHT22;4736;52.508;13.422;2024-01-07T08:27:34;-2.10;64.00
9393;DHT22;4736;52.508;13.422;2024-01-07T08:30:39;-2.10;64.00
9393;DHT22;4736;52.508;13.422;2024-01-07T08:33:43;-2.00;64.00
9393;DHT22;4736;52.508;13.422;2024-01-07T08:36:47;-2.00;64.20
9393;DHT22;4736;52.508;13.422;2024-01-07T08:40:20;-2.00;64.10
9393;DHT22;4736;52.508;13.422;2024-01-07T08:43:23;-1.90;64.10
9393;DHT22;4736;52.508;13.422;2024-01-07T08:46:26;-1.90;64.20
9393;DHT22;4736;52.508;13.422;2024-01-07T08:49:31;-1.80;64.10
9393;DHT22;4736;52.508;13.422;2024-01-07T08:52:36;-1.80;63.90
9393;DHT22;4736;52.508;13.422;2024-01-07T08:55:39;-1.80;64.00
9393;DHT22;4736;52.508;13.422;2024-01-07T08:58:42;-1.70;64.20
9393;DHT22;4736;52.508;13.422;2024-01-07T09:01:45;-1.70;64.20
9393;DHT22;4736;52.508;13.422;2024-01-07T09:04:50;-1.60;64.10
9393;DHT22;4736;52.508;13.422;2024-01-07T09:07:53;-1.50;64.10
9393;DHT22;4736;52.508;13.422;2024-01-07T09:10:56;-1.50;64.20
9393;DHT22;4736;52.508;13.422;2024-01-07T09:14:02;-1.50;64.20
9393;DHT22;4736;52.508;13.422;2024-01-07T09:17:05;-1.40;64.10
9393;DHT22;4736;52.508;13.422;2024-01-07T09:20:12;-1.40;64.30
9393;DHT22;4736;52.508;13.422;2024-01-07T09:23:16;-1.30;64.40
9393;DHT22;4736;52.508;13.422;2024-01-07T09:26:19;-1.30;64.10
9393;DHT22;4736;52.508;13.422;2024-01-07T09:29:22;-1.30;63.90
9393;DHT22;4736;52.508;13.422;2024-01-07T09:32:25;-1.30;64.10
9393;DHT22;4736;52.508;13.422;2024-01-07T09:35:29;-1.30;64.10
9393;DHT22;4736;52.508;13.422;2024-01-07T09:38:33;-1.10;64.10
9393;DHT22;4736;52.508;13.422;2024-01-07T09:41:36;-1.10;64.00
9393;DHT22;4736;52.508;13.422;2024-01-07T09:44:39;-1.10;64.30
9393;DHT22;4736;52.508;13.422;2024-01-07T09:47:44;-1.10;64.60
9393;DHT22;4736;52.508;13.422;2024-01-07T09:50:49;-1.10;65.00
9393;DHT22;4736;52.508;13.422;2024-01-07T09:53:57;-1.10;65.00
9393;DHT22;4736;52.508;13.422;2024-01-07T09:57:02;-1.10;65.00
9393;DHT22;4736;52.508;13.422;2024-01-07T10:00:09;-1.10;65.20
9393;DHT22;4736;52.508;13.422;2024-01-07T10:03:12;-1.20;65.40
9393;DHT22;4736;52.508;13.422;2024-01-07T10:06:20;-1.20;65.70
9393;DHT22;4736;52.508;13.422;2024-01-07T10:09:24;-1.10;65.70
9393;DHT22;4736;52.508;13.422;2024-01-07T10:12:29;-1.20;65.70
9393;DHT22;4736;52.508;13.422;2024-01-07T10:15:32;-1.10;65.50
9393;DHT22;4736;52.508;13.422;2024-01-07T10:18:36;-1.10;65.80
9393;DHT22;4736;52.508;13.422;2024-01-07T10:21:41;-1.10;65.90
9393;DHT22;4736;52.508;13.422;2024-01-07T10:24:44;-1.10;66.50
9393;DHT22;4736;52.508;13.422;2024-01-07T10:27:48;-1.10;66.70
9393;DHT22;4736;52.508;13.422;2024-01-07T10:30:51;-1.10;67.00
9393;DHT22;4736;52.508;13.422;2024-01-07T10:33:56;-1.10;66.80
9393;DHT22;4736;52.508;13.422;2024-01-07T10:37:02;-1.10;67.20
9393;DHT22;4736;52.508;13.422;2024-01-07T10:40:07;-1.10;67.10
9393;DHT22;4736;52.508;13.422;2024-01-07T10:43:15;-1.10;67.30
9393;DHT22;4736;52.508;13.422;2024-01-07T10:46:19;-1.10;67.50
9393;DHT22;4736;52.508;13.422;2024-01-07T10:49:23;-1.00;67.80
9393;DHT22;4736;52.508;13.422;2024-01-07T10:52:28;-1.00;67.20
9393;DHT22;4736;52.508;13.422;2024-01-07T10:55:34;-0.90;67.10
9393;DHT22;4736;52.508;13.422;2024-01-07T10:58:38;-0.90;67.40
9393;DHT22;4736;52.508;13.422;2024-01-07T11:01:42;-0.90;67.20
9393;DHT22;4736;52.508;13.422;2024-01-07T11:04:54;-0.90;67.20
9393;DHT22;4736;52.508;13.422;2024-01-07T11:08:06;-0.90;67.20
9393;DHT22;4736;52.508;13.422;2024-01-07T11:11:15;-0.90;67.30
9393;DHT22;4736;52.508;13.422;2024-01-07T11:14:35;-0.70;67.10
9393;DHT22;4736;52.508;13.422;2024-01-07T11:17:42;-0.70;67.00
9393;DHT22;4736;52.508;13.422;2024-01-07T11:20:47;-0.70;67.10
9393;DHT22;4736;52.508;13.422;2024-01-07T11:23:52;-0.70;67.20
9393;DHT22;4736;52.508;13.422;2024-01-07T11:27:01;-0.60;67.20
9393;DHT22;4736;52.508;13.422;2024-01-07T11:30:08;-0.60;67.00
9393;DHT22;4736;52.508;13.422;2024-01-07T11:33:23;-0.50;67.00
9393;DHT22;4736;52.508;13.422;2024-01-07T11:36:35;-0.50;67.20
9393;DHT22;4736;52.508;13.422;2024-01-07T11:39:42;-0.50;67.20
9393;DHT22;4736;52.508;13.422;2024-01-07T11:42:45;-0.60;67.50
9393;DHT22;4736;52.508;13.422;2024-01-07T11:45:50;-0.60;67.90
9393;DHT22;4736;52.508;13.422;2024-01-07T11:48:55;-0.50;68.00
9393;DHT22;4736;52.508;13.422;2024-01-07T11:52:01;-0.50;68.10
9393;DHT22;4736;52.508;13.422;2024-01-07T11:55:06;-0.50;68.20
9393;DHT22;4736;52.508;13.422;2024-01-07T11:58:11;-0.50;68.20
9393;DHT22;4736;52.508;13.422;2024-01-07T12:01:15;-0.50;68.20
9393;DHT22;4736;52.508;13.422;2024-01-07T12:04:20;-0.50;68.20
9393;DHT22;4736;52.508;13.422;2024-01-07T12:07:23;-0.60;68.30
9393;DHT22;4736;52.508;13.422;2024-01-07T12:10:28;-0.60;68.60
9393;DHT22;4736;52.508;13.422;2024-01-07T12:13:31;-0.50;68.60
9393;DHT22;4736;52.508;13.422;2024-01-07T12:16:35;-0.50;68.70
9393;DHT22;4736;52.508;13.422;2024-01-07T12:19:40;-0.50;69.00
9393;DHT22;4736;52.508;13.422;2024-01-07T12:22:43;-0.60;69.10
9393;DHT22;4736;52.508;13.422;2024-01-07T12:25:48;-0.60;69.20
9393;DHT22;4736;52.508;13.422;2024-01-07T12:28:54;-0.60;69.20
9393;DHT22;4736;52.508;13.422;2024-01-07T12:31:59;-0.60;69.40
9393;DHT22;4736;52.508;13.422;2024-01-07T12:35:05;-0.60;69.50
9393;DHT22;4736;52.508;13.422;2024-01-07T12:38:11;-0.50;69.60
9393;DHT22;4736;52.508;13.422;2024-01-07T12:41:15;-0.50;69.70
9393;DHT22;4736;52.508;13.422;2024-01-07T12:44:18;-0.50;69.90
9393;DHT22;4736;52.508;13.422;2024-01-07T12:47:21;-0.40;69.80
9393;DHT22;4736;52.508;13.422;2024-01-07T12:50:25;-0.40;70.00
9393;DHT22;4736;52.508;13.422;2024-01-07T12:53:30;-0.40;70.20
9393;DHT22;4736;52.508;13.422;2024-01-07T12:56:34;-0.40;70.20
9393;DHT22;4736;52.508;13.422;2024-01-07T12:59:38;-0.30;70.10
9393;DHT22;4736;52.508;13.422;2024-01-07T13:02:41;-0.30;70.10
9393;DHT22;4736;52.508;13.422;2024-01-07T13:05:44;-0.40;70.50
9393;DHT22;4736;52.508;13.422;2024-01-07T13:08:50;-0.40;70.70
9393;DHT22;4736;52.508;13.422;2024-01-07T13:11:55;-0.30;70.90
9393;DHT22;4736;52.508;13.422;2024-01-07T13:14:59;-0.40;71.10
9393;DHT22;4736;52.508;13.422;2024-01-07T13:18:03;-0.30;71.10
9393;DHT22;4736;52.508;13.422;2024-01-07T13:21:06;-0.40;71.40
9393;DHT22;4736;52.508;13.422;2024-01-07T13:24:10;-0.40;71.50
9393;DHT22;4736;52.508;13.422;2024-01-07T13:27:14;-0.40;71.90
9393;DHT22;4736;52.508;13.422;2024-01-07T13:30:19;-0.40;71.80
9393;DHT22;4736;52.508;13.422;2024-01-07T13:33:23;-0.40;72.00
9393;DHT22;4736;52.508;13.422;2024-01-07T13:36:26;-0.40;72.30
9393;DHT22;4736;52.508;13.422;2024-01-07T13:39:29;-0.40;72.20
9393;DHT22;4736;52.508;13.422;2024-01-07T13:42:34;-0.40;72.50
9393;DHT22;4736;52.508;13.422;2024-01-07T13:45:37;-0.40;72.70
9393;DHT22;4736;52.508;13.422;2024-01-07T13:48:40;-0.40;73.10
9393;DHT22;4736;52.508;13.422;2024-01-07T13:51:46;-0.30;72.90
9393;DHT22;4736;52.508;13.422;2024-01-07T13:54:49;-0.30;73.00
9393;DHT22;4736;52.508;13.422;2024-01-07T13:57:53;-0.40;73.10
9393;DHT22;4736;52.508;13.422;2024-01-07T14:00:57;-0.30;72.90
9393;DHT22;4736;52.508;13.422;2024-01-07T14:04:00;-0.30;72.70
9393;DHT22;4736;52.508;13.422;2024-01-07T14:07:05;-0.30;72.80
9393;DHT22;4736;52.508;13.422;2024-01-07T14:10:08;-0.40;73.00
9393;DHT22;4736;52.508;13.422;2024-01-07T14:13:13;-0.40;73.00
9393;DHT22;4736;52.508;13.422;2024-01-07T14:16:16;-0.40;73.30
9393;DHT22;4736;52.508;13.422;2024-01-07T14:19:19;-0.40;73.30
9393;DHT22;4736;52.508;13.422;2024-01-07T14:22:24;-0.30;73.30
9393;DHT22;4736;52.508;13.422;2024-01-07T14:25:27;-0.30;73.20
9393;DHT22;4736;52.508;13.422;2024-01-07T14:28:32;-0.30;73.30
9393;DHT22;4736;52.508;13.422;2024-01-07T14:31:35;-0.30;73.20
9393;DHT22;4736;52.508;13.422;2024-01-07T14:34:39;-0.30;73.10
9393;DHT22;4736;52.508;13.422;2024-01-07T14:37:43;-0.30;72.90
9393;DHT22;4736;52.508;13.422;2024-01-07T14:40:47;-0.30;72.90
9393;DHT22;4736;52.508;13.422;2024-01-07T14:43:52;-0.30;73.00
9393;DHT22;4736;52.508;13.422;2024-01-07T14:46:57;-0.30;73.10
9393;DHT22;4736;52.508;13.422;2024-01-07T14:50:00;-0.30;73.20
9393;DHT22;4736;52.508;13.422;2024-01-07T14:53:07;-0.30;73.10
9393;DHT22;4736;52.508;13.422;2024-01-07T14:56:10;-0.30;73.10
9393;DHT22;4736;52.508;13.422;2024-01-07T14:59:15;-0.30;73.20
9393;DHT22;4736;52.508;13.422;2024-01-07T15:02:18;-0.30;73.20
9393;DHT22;4736;52.508;13.422;2024-01-07T15:05:22;-0.30;73.00
9393;DHT22;4736;52.508;13.422;2024-01-07T15:08:26;-0.30;73.00
9393;DHT22;4736;52.508;13.422;2024-01-07T15:11:29;-0.30;73.00
9393;DHT22;4736;52.508;13.422;2024-01-07T15:14:33;-0.30;73.10
9393;DHT22;4736;52.508;13.422;2024-01-07T15:17:36;-0.30;73.10
9393;DHT22;4736;52.508;13.422;2024-01-07T15:20:40;-0.30;73.00
9393;DHT22;4736;52.508;13.422;2024-01-07T15:23:43;-0.30;72.80
9393;DHT22;4736;52.508;13.422;2024-01-07T15:26:46;-0.30;72.90
9393;DHT22;4736;52.508;13.422;2024-01-07T15:29:50;-0.30;72.90
9393;DHT22;4736;52.508;13.422;2024-01-07T15:32:53;-0.40;73.00
9393;DHT22;4736;52.508;13.422;2024-01-07T15:35:57;-0.40;73.10
9393;DHT22;4736;52.508;13.422;2024-01-07T15:39:00;-0.40;73.30
9393;DHT22;4736;52.508;13.422;2024-01-07T15:42:04;-0.40;72.70
9393;DHT22;4736;52.508;13.422;2024-01-07T15:45:10;-0.40;72.10
9393;DHT22;4736;52.508;13.422;2024-01-07T15:48:13;-0.50;70.70
9393;DHT22;4736;52.508;13.422;2024-01-07T15:51:17;-0.50;68.40
9393;DHT22;4736;52.508;13.422;2024-01-07T15:54:20;-0.60;68.20
9393;DHT22;4736;52.508;13.422;2024-01-07T15:57:23;-0.60;67.50
9393;DHT22;4736;52.508;13.422;2024-01-07T16:00:28;-0.60;66.70
9393;DHT22;4736;52.508;13.422;2024-01-07T16:03:31;-0.60;66.50
9393;DHT22;4736;52.508;13.422;2024-01-07T16:06:35;-0.60;66.70
9393;DHT22;4736;52.508;13.422;2024-01-07T16:09:39;-0.70;66.50
9393;DHT22;4736;52.508;13.422;2024-01-07T16:12:44;-0.60;66.00
9393;DHT22;4736;52.508;13.422;2024-01-07T16:15:48;-0.70;66.30
9393;DHT22;4736;52.508;13.422;2024-01-07T16:18:52;-0.70;66.50
9393;DHT22;4736;52.508;13.422;2024-01-07T16:21:56;-0.70;66.80
9393;DHT22;4736;52.508;13.422;2024-01-07T16:25:00;-0.70;66.60
9393;DHT22;4736;52.508;13.422;2024-01-07T16:28:04;-0.70;66.70
9393;DHT22;4736;52.508;13.422;2024-01-07T16:31:10;-0.70;66.70
9393;DHT22;4736;52.508;13.422;2024-01-07T16:34:14;-0.70;66.80
9393;DHT22;4736;52.508;13.422;2024-01-07T16:37:17;-0.70;66.60
9393;DHT22;4736;52.508;13.422;2024-01-07T16:40:20;-0.70;66.70
9393;DHT22;4736;52.508;13.422;2024-01-07T16:43:23;-0.80;66.70
9393;DHT22;4736;52.508;13.422;2024-01-07T16:46:32;-0.80;66.70
9393;DHT22;4736;52.508;13.422;2024-01-07T16:49:36;-0.70;66.50
9393;DHT22;4736;52.508;13.422;2024-01-07T16:52:59;-0.70;66.40
9393;DHT22;4736;52.508;13.422;2024-01-07T16:56:04;-0.70;66.50
9393;DHT22;4736;52.508;13.422;2024-01-07T16:59:08;-0.70;66.40
9393;DHT22;4736;52.508;13.422;2024-01-07T17:02:12;-0.90;66.00
9393;DHT22;4736;52.508;13.422;2024-01-07T17:05:15;-0.80;66.00
9393;DHT22;4736;52.508;13.422;2024-01-07T17:08:19;-0.80;66.40
9393;DHT22;4736;52.508;13.422;2024-01-07T17:11:22;-0.90;66.60
9393;DHT22;4736;52.508;13.422;2024-01-07T17:14:25;-0.90;66.50
9393;DHT22;4736;52.508;13.422;2024-01-07T17:17:30;-0.90;66.70
9393;DHT22;4736;52.508;13.422;2024-01-07T17:20:35;-0.90;66.50
9393;DHT22;4736;52.508;13.422;2024-01-07T17:23:40;-0.90;66.80
9393;DHT22;4736;52.508;13.422;2024-01-07T17:26:43;-0.90;66.20
9393;DHT22;4736;52.508;13.422;2024-01-07T17:29:46;-0.90;66.00
9393;DHT22;4736;52.508;13.422;2024-01-07T17:36:32;-0.90;66.80
9393;DHT22;4736;52.508;13.422;2024-01-07T17:39:36;-0.90;66.80
9393;DHT22;4736;52.508;13.422;2024-01-07T17:42:39;-1.00;66.90
9393;DHT22;4736;52.508;13.422;2024-01-07T17:45:43;-0.90;66.70
9393;DHT22;4736;52.508;13.422;2024-01-07T17:48:47;-1.00;67.00
9393;DHT22;4736;52.508;13.422;2024-01-07T17:51:51;-1.00;67.20
9393;DHT22;4736;52.508;13.422;2024-01-07T17:54:54;-1.00;67.20
9393;DHT22;4736;52.508;13.422;2024-01-07T17:57:58;-0.90;66.70
9393;DHT22;4736;52.508;13.422;2024-01-07T18:01:01;-1.00;66.80
9393;DHT22;4736;52.508;13.422;2024-01-07T18:04:06;-1.00;67.10
9393;DHT22;4736;52.508;13.422;2024-01-07T18:07:09;-1.00;67.30
9393;DHT22;4736;52.508;13.422;2024-01-07T18:10:14;-1.00;67.30
9393;DHT22;4736;52.508;13.422;2024-01-07T18:13:17;-1.10;67.30
9393;DHT22;4736;52.508;13.422;2024-01-07T18:16:20;-1.10;67.70
9393;DHT22;4736;52.508;13.422;2024-01-07T18:19:24;-1.10;68.10
9393;DHT22;4736;52.508;13.422;2024-01-07T18:22:30;-1.10;67.90
9393;DHT22;4736;52.508;13.422;2024-01-07T18:25:33;-1.00;68.00
9393;DHT22;4736;52.508;13.422;2024-01-07T18:28:38;-1.10;67.90
9393;DHT22;4736;52.508;13.422;2024-01-07T18:31:41;-1.10;68.20
9393;DHT22;4736;52.508;13.422;2024-01-07T18:34:46;-1.10;68.40
9393;DHT22;4736;52.508;13.422;2024-01-07T18:37:49;-1.10;67.50
9393;DHT22;4736;52.508;13.422;2024-01-07T18:40:53;-1.10;68.00
9393;DHT22;4736;52.508;13.422;2024-01-07T18:43:56;-1.10;67.70
9393;DHT22;4736;52.508;13.422;2024-01-07T18:46:59;-1.10;67.20
9393;DHT22;4736;52.508;13.422;2024-01-07T18:50:04;-1.10;66.70
9393;DHT22;4736;52.508;13.422;2024-01-07T18:53:08;-1.10;66.20
9393;DHT22;4736;52.508;13.422;2024-01-07T18:56:11;-1.10;65.70
9393;DHT22;4736;52.508;13.422;2024-01-07T18:59:14;-1.10;65.30
9393;DHT22;4736;52.508;13.422;2024-01-07T19:02:18;-1.20;65.10
9393;DHT22;4736;52.508;13.422;2024-01-07T19:05:23;-1.30;65.10
9393;DHT22;4736;52.508;13.422;2024-01-07T19:08:27;-1.30;64.60
9393;DHT22;4736;52.508;13.422;2024-01-07T19:11:31;-1.30;64.00
9393;DHT22;4736;52.508;13.422;2024-01-07T19:14:34;-1.40;63.30
9393;DHT22;4736;52.508;13.422;2024-01-07T19:17:39;-1.50;63.20
9393;DHT22;4736;52.508;13.422;2024-01-07T19:20:44;-1.50;63.00
9393;DHT22;4736;52.508;13.422;2024-01-07T19:23:48;-1.50;63.00
9393;DHT22;4736;52.508;13.422;2024-01-07T19:26:52;-1.50;63.30
9393;DHT22;4736;52.508;13.422;2024-01-07T19:29:55;-1.50;63.50
9393;DHT22;4736;52.508;13.422;2024-01-07T19:33:00;-1.60;63.50
9393;DHT22;4736;52.508;13.422;2024-01-07T19:36:09;-1.60;63.00
9393;DHT22;4736;52.508;13.422;2024-01-07T19:39:12;-1.70;62.60
9393;DHT22;4736;52.508;13.422;2024-01-07T19:42:18;-1.80;60.40
9393;DHT22;4736;52.508;13.422;2024-01-07T19:45:21;-2.10;58.70